createdAt,value
2023-02-05T10:21:44.869Z,2.90
2023-02-05T10:26:47.880Z,2.77
2023-02-05T10:31:45.228Z,2.43
2023-02-05T10:36:40.185Z,2.30
2023-02-05T10:41:39.830Z,2.73
2023-02-05T10:46:36.951Z,2.30
2023-02-05T10:51:35.108Z,2.47
2023-02-05T10:56:30.096Z,2.43
2023-02-05T11:01:32.022Z,2.60
2023-02-05T11:06:29.592Z,2.90
2023-02-05T11:11:25.932Z,2.80
2023-02-05T11:16:21.893Z,3.53
2023-02-05T11:21:15.462Z,2.27
2023-02-05T11:26:11.472Z,2.70
2023-02-05T11:36:26.707Z,2.67
2023-02-05T11:41:29.547Z,2.10
2023-02-05T11:46:26.161Z,2.10
2023-02-05T11:51:40.496Z,2.10
2023-02-05T11:56:35.302Z,2.00
2023-02-05T12:01:32.389Z,2.43
2023-02-05T12:06:31.282Z,2.40
2023-02-05T12:12:06.562Z,2.13
2023-02-05T12:17:07.244Z,2.00
2023-02-05T12:22:07.663Z,1.90
2023-02-05T12:27:31.532Z,2.27
2023-02-05T12:32:40.457Z,2.63
2023-02-05T12:37:45.794Z,1.90
2023-02-05T12:43:02.021Z,2.27
2023-02-05T12:48:16.059Z,2.07
2023-02-05T12:53:28.938Z,1.90
2023-02-05T12:58:29.927Z,2.20
2023-02-05T13:03:30.196Z,2.20
2023-02-05T13:08:38.707Z,1.90
2023-02-05T13:13:41.471Z,2.10
2023-02-05T13:18:51.940Z,2.00
2023-02-05T13:24:05.649Z,1.90
2023-02-05T13:29:15.173Z,2.03
2023-02-05T13:34:11.068Z,2.00
2023-02-05T13:39:26.415Z,1.90
2023-02-05T13:45:08.304Z,2.30
2023-02-05T13:50:44.042Z,2.13
2023-02-05T13:56:18.977Z,1.90
2023-02-05T14:01:23.481Z,2.60
2023-02-05T14:06:23.386Z,1.97
2023-02-05T14:11:17.353Z,1.63
2023-02-05T14:16:38.370Z,1.77
2023-02-05T14:22:04.747Z,1.90
2023-02-05T14:27:00.880Z,1.83
2023-02-05T14:31:56.183Z,1.70
2023-02-05T14:36:50.119Z,1.63
2023-02-05T14:41:55.312Z,2.00
2023-02-05T14:46:59.824Z,1.90
2023-02-05T14:52:00.479Z,2.67
2023-02-05T14:57:12.523Z,3.03
2023-02-05T15:02:53.134Z,2.33
2023-02-05T21:28:42.735Z,11.17
2023-02-05T21:33:37.232Z,10.30
2023-02-05T21:38:32.127Z,18.80
2023-02-05T21:43:25.880Z,18.93
2023-02-05T21:48:23.773Z,18.43
2023-02-05T21:53:18.959Z,22.73
2023-02-05T21:58:12.801Z,15.60
2023-02-05T22:03:06.796Z,17.67
2023-02-05T22:08:04.875Z,29.47
2023-02-05T22:13:00.258Z,37.23
2023-02-05T22:17:56.217Z,19.97
2023-02-05T22:22:50.133Z,29.80
2023-02-05T22:27:46.357Z,30.80
2023-02-05T22:32:42.472Z,20.47
2023-02-05T22:37:36.055Z,14.93
2023-02-05T22:42:29.673Z,13.40
2023-02-05T22:47:25.656Z,10.00
2023-02-05T22:52:21.437Z,14.63
2023-02-05T22:57:15.683Z,16.37
2023-02-05T23:02:09.301Z,13.53
2023-02-05T23:07:04.768Z,13.13
